Storm Events Database

Event Details

Event Thunderstorm Wind
Magnitude 65 kts.
State TEXAS
County/Area COLLIN
WFO FWD
Report Source Public
NCDC Data Source CSV
Begin Date 2009-06-10 18:20:00.0 CST-6
Begin Location 2NNW PLANO
Begin Lat/Lon 33.04/-96.73
End Date 2009-06-10 18:20:00.0 CST-6
Deaths Direct/Indirect 0/0 (fatality details below, when available...)
Injuries Direct/Indirect 0/0
Property Damage 3.00K
Crop Damage 0.00K
Episode Narrative An MCS moved through north Texas causing significant damage to areas generally along and north of Interstate 20. Significant and widespread tree, fence and power line damage was reported along the path of the MCS. In addition, three tornadoes touched down in the northern portions of the DFW Metroplex. Approximately 250,000 people were left without power in the Metroplex and hundreds of flights were grounded or cancelled at DFW and DAL.
Event Narrative Two tree limbs that were 5 inches in diameter and 4-7 feet long were knocked down near W Parker Road and Custer Road in Plano.


     ‚Äč



All events for this episode:

Location County/Zone St. Date Time T.Z. Type Mag Dth Inj PrD CrD
Totals: 0 0 7.700M 0.00K
PROFFITT YOUNG CO. TX 06/10/2009 15:45 CST-6 Thunderstorm Wind 61 kts. EG 0 0 6.00K 0.00K
EOLIAN STEPHENS CO. TX 06/10/2009 16:05 CST-6 Hail 0.88 in. 0 0 0.00K 0.00K
GRAHAM YOUNG CO. TX 06/10/2009 16:08 CST-6 Hail 0.88 in. 0 0 0.00K 0.00K
GRAHAM MUNI ARPT YOUNG CO. TX 06/10/2009 16:13 CST-6 Hail 0.88 in. 0 0 0.00K 0.00K
GRAHAM YOUNG CO. TX 06/10/2009 16:15 CST-6 Thunderstorm Wind 61 kts. EG 0 0 1.00K 0.00K
GRAHAM YOUNG CO. TX 06/10/2009 16:25 CST-6 Flash Flood 0 0 1.00K 0.00K
BOONSVILLE WISE CO. TX 06/10/2009 16:30 CST-6 Thunderstorm Wind 64 kts. EG 0 0 5.00K 0.00K
JOLPIN JACK CO. TX 06/10/2009 16:30 CST-6 Thunderstorm Wind 64 kts. EG 0 0 5.00K 0.00K
POSSUM KINGDOM LAKE PALO PINTO CO. TX 06/10/2009 16:30 CST-6 Thunderstorm Wind 70 kts. EG 0 0 2.000M 0.00K
WHITT PARKER CO. TX 06/10/2009 16:30 CST-6 Thunderstorm Wind 64 kts. EG 0 0 5.00K 0.00K
PERRIN JACK CO. TX 06/10/2009 16:45 CST-6 Hail 1.75 in. 0 0 3.00K 0.00K
ADELL PARKER CO. TX 06/10/2009 16:55 CST-6 Thunderstorm Wind 60 kts. EG 0 0 3.00K 0.00K
BOONSVILLE WISE CO. TX 06/10/2009 17:05 CST-6 Thunderstorm Wind 70 kts. MG 0 0 5.00K 0.00K
SPRINGTOWN PARKER CO. TX 06/10/2009 17:08 CST-6 Thunderstorm Wind 65 kts. EG 0 0 2.00K 0.00K
SPRINGTOWN PARKER CO. TX 06/10/2009 17:10 CST-6 Thunderstorm Wind 70 kts. EG 0 0 100.00K 0.00K
SPRINGTOWN PARKER CO. TX 06/10/2009 17:10 CST-6 Thunderstorm Wind 70 kts. EG 0 0 20.00K 0.00K
SPRINGTOWN PARKER CO. TX 06/10/2009 17:10 CST-6 Thunderstorm Wind 70 kts. EG 0 0 7.00K 0.00K
WEATHERFORD ARPT PARKER CO. TX 06/10/2009 17:15 CST-6 Thunderstorm Wind 70 kts. EG 0 0 6.00K 0.00K
BOLIVAR DENTON CO. TX 06/10/2009 17:20 CST-6 Hail 0.88 in. 0 0 0.00K 0.00K
FT WORTH SAGINAW ARP TARRANT CO. TX 06/10/2009 17:20 CST-6 Lightning 0 0 500.00K 0.00K
LAKE WORTH TARRANT CO. TX 06/10/2009 17:20 CST-6 Lightning 0 0 10.00K 0.00K
RENO PARKER CO. TX 06/10/2009 17:20 CST-6 Thunderstorm Wind 70 kts. EG 0 0 10.00K 0.00K
SANGER DENTON CO. TX 06/10/2009 17:23 CST-6 Hail 1.00 in. 0 0 0.00K 0.00K
AZLE TARRANT CO. TX 06/10/2009 17:25 CST-6 Thunderstorm Wind 65 kts. MG 0 0 7.00K 0.00K
EAGLE MTN ACRES TARRANT CO. TX 06/10/2009 17:25 CST-6 Thunderstorm Wind 65 kts. EG 0 0 3.000M 0.00K
THORP SPG HOOD CO. TX 06/10/2009 17:28 CST-6 Thunderstorm Wind 58 kts. MG 0 0 0.50K 0.00K
FT WORTH TARRANT CO. TX 06/10/2009 17:30 CST-6 Lightning 0 0 1.000M 0.00K
SPRINGTOWN PARKER CO. TX 06/10/2009 17:34 CST-6 Flash Flood 0 0 1.00K 0.00K
LAKE WORTH TARRANT CO. TX 06/10/2009 17:37 CST-6 Thunderstorm Wind 65 kts. MG 0 0 8.00K 0.00K
FORD WISE CO. TX 06/10/2009 17:38 CST-6 Thunderstorm Wind 56 kts. EG 0 0 2.00K 0.00K
FT WORTH BLUE MND AR TARRANT CO. TX 06/10/2009 17:40 CST-6 Thunderstorm Wind 50 kts. MG 0 0 5.00K 0.00K
JUSTIN DENTON CO. TX 06/10/2009 17:40 CST-6 Thunderstorm Wind 61 kts. EG 0 0 5.00K 0.00K
ROANOKE DENTON CO. TX 06/10/2009 17:40 CST-6 Tornado EF0 0 0 5.00K 0.00K
ROANOKE DENTON CO. TX 06/10/2009 17:40 CST-6 Thunderstorm Wind 61 kts. EG 0 0 3.00K 0.00K
SOUTH LAKE TARRANT CO. TX 06/10/2009 17:41 CST-6 Thunderstorm Wind 61 kts. EG 0 0 10.00K 0.00K
WATAUGA TARRANT CO. TX 06/10/2009 17:41 CST-6 Thunderstorm Wind 51 kts. MG 0 0 5.00K 0.00K
GRAPEVINE RES DENTON CO. TX 06/10/2009 17:50 CST-6 Tornado EF0 0 0 0.00K 0.00K
KELLER GOODE ARPT TARRANT CO. TX 06/10/2009 17:50 CST-6 Thunderstorm Wind 56 kts. EG 0 0 7.00K 0.00K
LEWISVILLE DENTON CO. TX 06/10/2009 17:50 CST-6 Thunderstorm Wind 61 kts. EG 0 0 6.00K 0.00K
LEWISVILLE DENTON CO. TX 06/10/2009 17:52 CST-6 Thunderstorm Wind 61 kts. EG 0 0 5.00K 0.00K
LEWISVILLE DENTON CO. TX 06/10/2009 17:53 CST-6 Tornado EF1 0 0 200.00K 0.00K
LEWISVILLE DENTON CO. TX 06/10/2009 17:54 CST-6 Thunderstorm Wind 61 kts. EG 0 0 15.00K 0.00K
FT WORTH OAK GRVE AR TARRANT CO. TX 06/10/2009 17:55 CST-6 Thunderstorm Wind 56 kts. MG 0 0 5.00K 0.00K
GRAPEVINE TARRANT CO. TX 06/10/2009 17:55 CST-6 Thunderstorm Wind 70 kts. EG 0 0 12.00K 0.00K
CORINTH DENTON CO. TX 06/10/2009 18:00 CST-6 Thunderstorm Wind 65 kts. MG 0 0 8.00K 0.00K
TATE SPGS TARRANT CO. TX 06/10/2009 18:00 CST-6 Thunderstorm Wind 65 kts. EG 0 0 6.00K 0.00K
HEBRON DENTON CO. TX 06/10/2009 18:02 CST-6 Thunderstorm Wind 65 kts. EG 0 0 5.00K 0.00K
AUBREY DENTON CO. TX 06/10/2009 18:04 CST-6 Thunderstorm Wind 61 kts. EG 0 0 1.00K 0.00K
CARNEY DENTON CO. TX 06/10/2009 18:05 CST-6 Tornado EF0 0 0 0.00K 0.00K
DOWNING COMANCHE CO. TX 06/10/2009 18:05 CST-6 Hail 1.75 in. 0 0 1.00K 0.00K
EULESS TARRANT CO. TX 06/10/2009 18:05 CST-6 Thunderstorm Wind 65 kts. EG 0 0 40.00K 0.00K
EULESS TARRANT CO. TX 06/10/2009 18:05 CST-6 Thunderstorm Wind 65 kts. EG 0 0 60.00K 0.00K
GRAND PRAIRIE ARPT DALLAS CO. TX 06/10/2009 18:05 CST-6 Thunderstorm Wind 50 kts. MG 0 0 3.00K 0.00K
(DFW)DALLAS-FT WORTH DALLAS CO. TX 06/10/2009 18:09 CST-6 Thunderstorm Wind 56 kts. MG 0 0 4.00K 0.00K
COPPELL DALLAS CO. TX 06/10/2009 18:10 CST-6 Thunderstorm Wind 61 kts. EG 0 0 6.00K 0.00K
MANSFIELD TARRANT CO. TX 06/10/2009 18:10 CST-6 Thunderstorm Wind 55 kts. MG 0 0 5.00K 0.00K
CARNEY DENTON CO. TX 06/10/2009 18:12 CST-6 Thunderstorm Wind 65 kts. EG 0 0 4.00K 0.00K
FRISCO COLLIN CO. TX 06/10/2009 18:14 CST-6 Thunderstorm Wind 63 kts. MG 0 0 4.00K 0.00K
FRISCO COLLIN CO. TX 06/10/2009 18:15 CST-6 Thunderstorm Wind 65 kts. EG 0 0 6.00K 0.00K
FRISCO COLLIN CO. TX 06/10/2009 18:15 CST-6 Thunderstorm Wind 65 kts. EG 0 0 10.00K 0.00K
MANSFIELD TARRANT CO. TX 06/10/2009 18:15 CST-6 Thunderstorm Wind 52 kts. EG 0 0 1.50K 0.00K
DENTON DENTON CO. TX 06/10/2009 18:18 CST-6 Flash Flood 0 0 2.00K 0.00K
PLANO COLLIN CO. TX 06/10/2009 18:19 CST-6 Thunderstorm Wind 68 kts. MG 0 0 5.00K 0.00K
DALLAS REDBIRD ARPT DALLAS CO. TX 06/10/2009 18:20 CST-6 Thunderstorm Wind 62 kts. MG 0 0 4.00K 0.00K
PLANO COLLIN CO. TX 06/10/2009 18:20 CST-6 Thunderstorm Wind 65 kts. EG 0 0 3.00K 0.00K
RICHARDSON DALLAS CO. TX 06/10/2009 18:20 CST-6 Thunderstorm Wind 61 kts. EG 0 0 8.00K 0.00K
BENBROOK TARRANT CO. TX 06/10/2009 18:23 CST-6 Flash Flood 0 0 0.50K 0.00K
GRANDVIEW JOHNSON CO. TX 06/10/2009 18:25 CST-6 Thunderstorm Wind 56 kts. EG 0 0 2.00K 0.00K
ADDISON DALLAS CO. TX 06/10/2009 18:28 CST-6 Thunderstorm Wind 52 kts. EG 0 0 8.00K 0.00K
ALLEN COLLIN CO. TX 06/10/2009 18:30 CST-6 Thunderstorm Wind 61 kts. EG 0 0 5.00K 0.00K
FOOT COLLIN CO. TX 06/10/2009 18:30 CST-6 Thunderstorm Wind 61 kts. EG 0 0 5.00K 0.00K
CELINA COLLIN CO. TX 06/10/2009 18:35 CST-6 Thunderstorm Wind 61 kts. EG 0 0 3.00K 0.00K
CELINA COLLIN CO. TX 06/10/2009 18:35 CST-6 Thunderstorm Wind 61 kts. EG 0 0 5.00K 0.00K
MCKINNEY COLLIN CO. TX 06/10/2009 18:35 CST-6 Thunderstorm Wind 65 kts. EG 0 0 5.00K 0.00K
BALCH SPGS DALLAS CO. TX 06/10/2009 18:40 CST-6 Thunderstorm Wind 61 kts. EG 0 0 100.00K 0.00K
WAXAHACHIE ELLIS CO. TX 06/10/2009 18:46 CST-6 Thunderstorm Wind 52 kts. EG 0 0 6.00K 0.00K
ANNA COLLIN CO. TX 06/10/2009 18:50 CST-6 Thunderstorm Wind 61 kts. EG 0 0 12.00K 0.00K
VAN ALSTYNE GRAYSON CO. TX 06/10/2009 18:50 CST-6 Thunderstorm Wind 56 kts. EG 0 0 8.00K 0.00K
ENNIS ELLIS CO. TX 06/10/2009 18:55 CST-6 Thunderstorm Wind 52 kts. EG 0 0 3.00K 0.00K
TRENTON FANNIN CO. TX 06/10/2009 19:05 CST-6 Thunderstorm Wind 56 kts. EG 0 0 6.00K 0.00K
TRENTON FANNIN CO. TX 06/10/2009 19:05 CST-6 Lightning 0 0 2.00K 0.00K
BONHAM FANNIN CO. TX 06/10/2009 19:15 CST-6 Thunderstorm Wind 56 kts. EG 0 0 5.00K 0.00K
ALEY HENDERSON CO. TX 06/10/2009 19:25 CST-6 Thunderstorm Wind 56 kts. EG 0 0 15.00K 0.00K
WILLS PT VAN ZANDT CO. TX 06/10/2009 19:27 CST-6 Thunderstorm Wind 56 kts. EG 0 0 1.00K 0.00K
PETTY LAMAR CO. TX 06/10/2009 19:30 CST-6 Thunderstorm Wind 52 kts. EG 0 0 1.00K 0.00K
MC GIRK HAMILTON CO. TX 06/10/2009 19:45 CST-6 Thunderstorm Wind 74 kts. EG 0 0 30.00K 0.00K
STAR MILLS CO. TX 06/10/2009 19:45 CST-6 Thunderstorm Wind 56 kts. EG 0 0 2.00K 0.00K
SHIRLEY HOPKINS CO. TX 06/10/2009 19:48 CST-6 Thunderstorm Wind 60 kts. EG 0 0 2.00K 0.00K
SULPHUR SPGS HOPKINS CO. TX 06/10/2009 19:50 CST-6 Thunderstorm Wind 60 kts. EG 0 0 5.00K 0.00K
BLACKOAK HOPKINS CO. TX 06/10/2009 20:00 CST-6 Thunderstorm Wind 60 kts. EG 0 0 2.00K 0.00K
GRAND SALINE VAN ZANDT CO. TX 06/10/2009 20:00 CST-6 Thunderstorm Wind 52 kts. EG 0 0 3.00K 0.00K
PARIS LAMAR CO. TX 06/10/2009 20:05 CST-6 Thunderstorm Wind 56 kts. EG 0 0 5.00K 0.00K
TARRANT TARRANT CO. TX 06/10/2009 20:05 CST-6 Lightning 0 0 150.00K 0.00K
VAN VAN ZANDT CO. TX 06/10/2009 20:09 CST-6 Thunderstorm Wind 52 kts. EG 0 0 4.00K 0.00K
BEE HOUSE CORYELL CO. TX 06/10/2009 20:11 CST-6 Hail 2.50 in. 0 0 10.00K 0.00K
PRIMROSE VAN ZANDT CO. TX 06/10/2009 20:11 CST-6 Thunderstorm Wind 70 kts. EG 0 0 8.00K 0.00K
RENO LAMAR CO. TX 06/10/2009 20:12 CST-6 Thunderstorm Wind 52 kts. EG 0 0 3.00K 0.00K
SULPHUR BLUFF HOPKINS CO. TX 06/10/2009 20:15 CST-6 Thunderstorm Wind 65 kts. EG 0 0 1.00K 0.00K
BLOSSOM LAMAR CO. TX 06/10/2009 20:18 CST-6 Thunderstorm Wind 52 kts. EG 0 0 3.00K 0.00K
EDOM VAN ZANDT CO. TX 06/10/2009 20:20 CST-6 Hail 0.88 in. 0 0 0.00K 0.00K
CAYUGA ANDERSON CO. TX 06/10/2009 20:21 CST-6 Thunderstorm Wind 52 kts. EG 0 0 3.00K 0.00K
GRAHAM MUNI ARPT YOUNG CO. TX 06/10/2009 20:30 CST-6 Lightning 0 0 100.00K 0.00K
Totals: 0 0 7.700M 0.00K